Devine, Texas
Current Conditions -  °F | °C
As of 1:15 PM on Monday 20 Oct 2014 (Local Time) from KCVB Reporting Station
Scattered Clouds Scattered Clouds  
Wind Chill: 27°   Ceiling: Unl
Heat Index: 27°   Visibility: 10mi
Dew Point: 14°   Wind: 8mph
Humidity: 44%   Direction: 80°E
Pressure: 30.05"   Gusts: NA
Location:  29.14°N, 98.91°W
Report Text: KCVB 201815Z AUTO 08007KT 10SM SCT041 SCT049 27/14 A3005 RMK AO2 T02740140
Loading
Personal Weather Stations






























Interactive Weather Map
Tropical Storm Tracking
New forecast layout! Learn more

10-Day Weather Forecast

Advertisements
Track Severe Weather on mobile